Time;durP1;ratioP1;P1;durP2;ratioP2;P2;SDS_P1;SDS_P2;PMS_P1;PMS_P2;Temp;Humidity;BMP_temperature;BMP_pressure;BME280_temperature;BME280_humidity;BME280_pressure;Samples;Min_cycle;Max_cycle;Signal;HPM_P1;HPM_P2
2021/03/31 00:01:58;;;;;;;22.63;15.87;;;9.70;68.50;;;;;;5112932;28;20654;-68
2021/03/31 00:04:24;;;;;;;21.30;15.13;;;9.70;68.80;;;;;;5112945;28;20047;-68
2021/03/31 00:06:49;;;;;;;22.80;15.37;;;9.60;68.80;;;;;;5112931;28;20120;-68
2021/03/31 00:09:15;;;;;;;22.53;16.20;;;9.60;69.10;;;;;;5112591;28;20109;-68
2021/03/31 00:11:41;;;;;;;26.37;15.13;;;9.60;69.20;;;;;;5113018;28;20047;-68
2021/03/31 00:14:07;;;;;;;22.87;16.53;;;9.60;69.10;;;;;;5112815;28;20054;-68
2021/03/31 00:16:32;;;;;;;25.67;16.80;;;9.60;69.00;;;;;;5111971;28;20404;-68
2021/03/31 00:18:58;;;;;;;22.40;16.87;;;9.60;69.00;;;;;;5112870;28;20073;-68
2021/03/31 00:21:24;;;;;;;22.73;16.47;;;9.60;69.10;;;;;;5113151;28;20052;-68
2021/03/31 00:23:50;;;;;;;26.13;17.73;;;9.50;68.80;;;;;;5111736;28;20052;-68
2021/03/31 00:26:16;;;;;;;23.93;16.63;;;9.50;69.00;;;;;;5113027;28;20315;-68
2021/03/31 00:28:42;;;;;;;23.07;17.03;;;9.50;69.30;;;;;;5112401;28;20488;-68
2021/03/31 00:31:08;;;;;;;22.50;16.67;;;9.50;69.40;;;;;;5111743;28;20051;-68
2021/03/31 00:33:34;;;;;;;25.97;16.90;;;9.40;69.70;;;;;;5112600;28;20304;-68
2021/03/31 00:35:59;;;;;;;25.17;18.00;;;9.40;69.60;;;;;;5112581;28;20376;-68
2021/03/31 00:38:25;;;;;;;24.30;17.93;;;9.40;69.60;;;;;;5112067;28;20441;-68
2021/03/31 00:40:54;;;;;;;25.33;17.27;;;9.40;69.80;;;;;;5111996;28;20443;-68
2021/03/31 00:43:21;;;;;;;23.77;18.30;;;9.30;70.30;;;;;;5112518;28;20047;-68
2021/03/31 00:45:47;;;;;;;24.23;18.40;;;9.40;70.40;;;;;;5110875;28;20358;-68
2021/03/31 00:48:15;;;;;;;27.67;18.00;;;9.30;70.10;;;;;;5112475;28;20770;-68
2021/03/31 00:50:43;;;;;;;23.60;18.40;;;9.30;70.60;;;;;;5112222;28;20420;-68
2021/03/31 00:53:11;;;;;;;25.17;18.07;;;9.30;70.90;;;;;;5111726;28;20302;-68
2021/03/31 00:55:37;;;;;;;21.73;17.23;;;9.30;71.10;;;;;;5112121;28;20303;-68
2021/03/31 00:58:03;;;;;;;26.57;19.07;;;9.20;71.00;;;;;;5111745;28;20345;-68
2021/03/31 01:00:29;;;;;;;25.80;18.97;;;9.20;71.20;;;;;;5111517;28;20378;-68
2021/03/31 01:02:55;;;;;;;26.33;18.50;;;9.20;71.20;;;;;;5111863;28;20047;-68
2021/03/31 01:05:28;;;;;;;24.10;18.07;;;9.10;71.30;;;;;;5111292;28;20101;-68
2021/03/31 01:07:55;;;;;;;23.73;17.93;;;9.20;71.60;;;;;;5111734;28;20075;-68
2021/03/31 01:10:25;;;;;;;23.80;18.30;;;9.10;71.60;;;;;;5112402;28;20300;-68
2021/03/31 01:13:09;;;;;;;22.20;18.77;;;9.00;71.60;;;;;;5111212;28;20315;-68
2021/03/31 01:15:58;;;;;;;23.30;18.33;;;8.90;71.80;;;;;;5112155;28;20297;-68
2021/03/31 01:18:58;;;;;;;27.43;19.03;;;8.80;72.40;;;;;;5112046;28;20313;-67
2021/03/31 01:21:43;;;;;;;24.63;19.50;;;8.80;72.40;;;;;;5020966;28;20332;-68
2021/03/31 01:24:33;;;;;;;26.53;18.90;;;8.70;72.50;;;;;;5112370;28;20309;-67
2021/03/31 01:27:04;;;;;;;24.80;18.30;;;8.70;72.80;;;;;;5111377;28;20633;-67
2021/03/31 01:29:41;;;;;;;24.90;18.33;;;8.60;72.80;;;;;;5112297;28;20294;-68
2021/03/31 01:32:32;;;;;;;21.93;16.77;;;8.60;73.00;;;;;;5111810;28;20304;-67
2021/03/31 01:35:16;;;;;;;29.60;19.13;;;8.60;73.10;;;;;;5111089;28;20300;-67
2021/03/31 01:37:48;;;;;;;25.37;18.83;;;8.60;73.10;;;;;;5111525;28;20313;-67
2021/03/31 01:40:16;;;;;;;26.00;18.83;;;8.60;73.20;;;;;;5111987;28;20822;-68
2021/03/31 01:42:48;;;;;;;29.30;19.67;;;8.60;73.30;;;;;;5111150;28;20285;-68
2021/03/31 01:45:16;;;;;;;24.50;17.95;;;8.50;73.70;;;;;;5112081;28;20308;-68
2021/03/31 01:47:45;;;;;;;27.17;19.00;;;8.50;73.70;;;;;;5110787;28;20051;-68
2021/03/31 01:50:12;;;;;;;27.63;20.10;;;8.40;74.10;;;;;;5111794;28;20301;-68
2021/03/31 01:52:40;;;;;;;27.70;20.07;;;8.40;74.20;;;;;;5111707;28;20301;-68
2021/03/31 01:55:07;;;;;;;24.07;17.97;;;8.40;74.40;;;;;;5110840;28;20302;-68
2021/03/31 01:57:34;;;;;;;26.43;20.40;;;8.40;74.60;;;;;;5111509;28;20316;-68
2021/03/31 02:00:01;;;;;;;25.73;18.47;;;8.40;74.80;;;;;;5111496;28;20298;-68
2021/03/31 02:02:27;;;;;;;28.17;18.70;;;8.40;75.00;;;;;;5111009;28;20362;-68
2021/03/31 02:04:53;;;;;;;24.10;19.83;;;8.40;75.10;;;;;;5110980;28;20289;-68
2021/03/31 02:07:22;;;;;;;29.00;19.70;;;8.30;75.10;;;;;;5111581;28;20631;-68
2021/03/31 02:09:49;;;;;;;24.53;18.90;;;8.30;75.20;;;;;;5113344;28;20856;-68
2021/03/31 02:12:21;;;;;;;26.50;19.50;;;8.30;75.10;;;;;;5115639;28;20302;-68
2021/03/31 02:14:48;;;;;;;25.35;18.58;;;8.30;75.40;;;;;;5114968;28;20301;-68
2021/03/31 02:17:19;;;;;;;26.70;19.23;;;8.30;75.40;;;;;;5114750;28;20047;-68
2021/03/31 02:19:46;;;;;;;30.07;20.37;;;8.30;75.60;;;;;;5115231;28;20298;-68
2021/03/31 02:22:15;;;;;;;25.97;19.97;;;8.20;75.60;;;;;;5115562;28;20308;-68
2021/03/31 02:24:43;;;;;;;28.10;20.93;;;8.20;75.90;;;;;;5114489;28;20298;-68
2021/03/31 02:27:10;;;;;;;25.73;19.70;;;8.20;76.10;;;;;;5115040;28;20297;-68
2021/03/31 02:29:35;;;;;;;26.73;19.27;;;8.20;76.40;;;;;;5114833;28;20376;-68
2021/03/31 02:32:02;;;;;;;27.80;20.17;;;8.10;76.50;;;;;;5114036;28;20384;-68
2021/03/31 02:34:30;;;;;;;27.87;20.97;;;8.10;76.70;;;;;;5115126;28;20496;-68
2021/03/31 02:36:57;;;;;;;28.93;19.53;;;8.00;76.80;;;;;;5113889;28;20305;-68
2021/03/31 02:39:24;;;;;;;26.87;19.67;;;8.00;76.90;;;;;;5115153;28;20305;-68
2021/03/31 02:41:54;;;;;;;30.07;21.50;;;7.90;77.00;;;;;;5114225;28;20797;-68
2021/03/31 02:44:21;;;;;;;26.57;19.40;;;7.90;77.10;;;;;;5114184;28;20833;-68
2021/03/31 02:46:49;;;;;;;25.30;17.77;;;7.90;77.60;;;;;;5114096;28;20359;-68
2021/03/31 02:49:17;;;;;;;25.10;20.90;;;7.80;77.70;;;;;;5115066;28;20308;-68
2021/03/31 02:51:45;;;;;;;29.10;20.80;;;7.80;77.80;;;;;;5113903;28;20300;-68
2021/03/31 02:54:11;;;;;;;32.23;21.20;;;7.70;78.10;;;;;;5114724;28;20384;-67
2021/03/31 02:56:41;;;;;;;30.37;22.07;;;7.60;78.10;;;;;;5114297;28;20313;-68
2021/03/31 02:59:07;;;;;;;29.10;20.90;;;7.60;78.40;;;;;;5113675;28;20305;-68
2021/03/31 03:01:33;;;;;;;29.63;21.40;;;7.60;78.40;;;;;;5114227;28;20290;-68
2021/03/31 03:03:59;;;;;;;28.17;22.27;;;7.60;78.50;;;;;;5114149;28;20048;-68
2021/03/31 03:06:30;;;;;;;29.80;21.20;;;7.60;78.40;;;;;;5113674;28;20793;-68
2021/03/31 03:08:57;;;;;;;33.25;21.60;;;7.60;78.70;;;;;;5113784;28;20047;-68
2021/03/31 03:11:24;;;;;;;31.93;22.07;;;7.50;78.60;;;;;;5114383;28;20059;-68
2021/03/31 03:13:51;;;;;;;34.67;23.17;;;7.50;78.70;;;;;;5113059;28;20301;-68
2021/03/31 03:16:17;;;;;;;30.97;21.77;;;7.50;78.90;;;;;;5114361;28;20296;-68
2021/03/31 03:18:43;;;;;;;32.73;22.20;;;7.40;79.20;;;;;;5114109;28;20316;-68
2021/03/31 03:21:13;;;;;;;29.07;21.27;;;7.40;79.20;;;;;;5113176;28;20323;-67
2021/03/31 03:23:42;;;;;;;30.07;22.67;;;7.40;79.40;;;;;;5113986;28;20324;-68
2021/03/31 03:26:12;;;;;;;34.20;22.40;;;7.40;79.40;;;;;;5113008;28;20294;-68
2021/03/31 03:28:40;;;;;;;36.30;24.23;;;7.40;79.10;;;;;;5113985;28;20312;-68
2021/03/31 03:31:08;;;;;;;31.90;24.17;;;7.40;79.10;;;;;;5113896;28;20332;-68
2021/03/31 03:33:34;;;;;;;34.87;22.93;;;7.50;79.00;;;;;;5113052;28;20293;-68
2021/03/31 03:36:04;;;;;;;29.83;23.07;;;7.50;79.20;;;;;;5113719;28;20297;-68
2021/03/31 03:38:30;;;;;;;32.70;23.80;;;7.50;79.40;;;;;;5113883;28;20309;-67
2021/03/31 03:40:56;;;;;;;35.93;24.57;;;7.40;79.30;;;;;;5112357;28;20846;-68
2021/03/31 03:43:22;;;;;;;30.17;22.77;;;7.30;79.70;;;;;;5113920;28;20290;-67
2021/03/31 03:45:51;;;;;;;38.10;25.87;;;7.30;80.10;;;;;;5113046;28;20048;-68
2021/03/31 03:48:16;;;;;;;37.97;24.83;;;7.20;80.10;;;;;;5113141;28;20052;-67
2021/03/31 03:50:42;;;;;;;33.57;25.00;;;7.20;79.90;;;;;;5113414;28;20312;-68
2021/03/31 03:53:08;;;;;;;36.50;25.27;;;7.20;79.90;;;;;;5113286;28;20131;-67
2021/03/31 03:55:35;;;;;;;35.67;25.30;;;7.30;79.90;;;;;;5112410;28;20044;-68
2021/03/31 03:58:08;;;;;;;36.37;25.67;;;7.40;79.60;;;;;;5113272;28;20047;-67
2021/03/31 04:00:33;;;;;;;35.63;25.50;;;7.40;79.40;;;;;;5113350;28;20317;-68
2021/03/31 04:03:00;;;;;;;34.43;24.30;;;7.40;79.10;;;;;;5112402;28;20300;-68
2021/03/31 04:05:26;;;;;;;35.63;25.73;;;7.40;78.90;;;;;;5113464;28;20297;-67
2021/03/31 04:07:52;;;;;;;34.33;24.30;;;7.40;79.10;;;;;;5112579;28;20738;-68
2021/03/31 04:10:19;;;;;;;36.77;26.07;;;7.40;79.30;;;;;;5112496;28;20504;-68
2021/03/31 04:12:46;;;;;;;36.33;24.77;;;7.40;79.50;;;;;;5112724;28;20297;-67
2021/03/31 04:15:14;;;;;;;33.67;24.70;;;7.30;79.40;;;;;;5113123;28;20297;-68
2021/03/31 04:17:41;;;;;;;36.93;26.73;;;7.20;79.50;;;;;;5112736;28;20337;-68
2021/03/31 04:20:10;;;;;;;35.27;24.03;;;7.20;79.50;;;;;;5112691;28;20293;-67
2021/03/31 04:22:36;;;;;;;36.87;25.70;;;7.20;79.60;;;;;;5111935;28;20310;-67
2021/03/31 04:25:03;;;;;;;35.93;25.83;;;7.20;79.80;;;;;;5112781;28;20325;-67
2021/03/31 04:27:30;;;;;;;33.40;25.63;;;7.20;79.80;;;;;;5111463;28;20293;-67
2021/03/31 04:29:56;;;;;;;31.57;24.03;;;7.10;79.70;;;;;;5100693;28;20694;-67
2021/03/31 04:32:23;;;;;;;33.63;24.47;;;7.20;79.70;;;;;;5099595;28;20297;-67
2021/03/31 04:34:51;;;;;;;37.00;27.07;;;7.20;79.70;;;;;;5104195;28;20036;-67
2021/03/31 04:37:17;;;;;;;36.70;25.90;;;7.10;79.40;;;;;;5101940;28;20353;-67
2021/03/31 04:39:43;;;;;;;35.87;25.10;;;7.10;79.40;;;;;;5101645;28;20328;-67
2021/03/31 04:42:09;;;;;;;34.17;25.00;;;7.10;79.70;;;;;;5102779;28;20055;-67
2021/03/31 04:44:35;;;;;;;36.63;26.17;;;7.10;79.70;;;;;;5100484;28;20282;-67
2021/03/31 04:47:02;;;;;;;38.73;26.47;;;7.00;79.80;;;;;;5101425;28;20312;-67
2021/03/31 04:49:28;;;;;;;35.60;26.70;;;7.00;80.10;;;;;;5102881;28;21557;-67
2021/03/31 04:51:54;;;;;;;34.80;24.97;;;6.90;80.10;;;;;;5105331;28;20333;-68
2021/03/31 04:54:19;;;;;;;38.00;26.00;;;6.90;80.10;;;;;;5101189;28;20043;-68
2021/03/31 04:56:45;;;;;;;34.50;25.73;;;6.90;80.30;;;;;;5102120;28;20704;-67
2021/03/31 04:59:10;;;;;;;35.97;25.47;;;6.90;80.20;;;;;;5100227;28;20102;-67
2021/03/31 05:01:36;;;;;;;39.03;27.00;;;6.80;80.10;;;;;;5101609;28;20476;-67
2021/03/31 05:04:02;;;;;;;37.27;25.23;;;6.80;80.20;;;;;;5094721;28;20070;-69
2021/03/31 05:06:27;;;;;;;36.13;25.80;;;6.70;80.30;;;;;;5091080;28;20055;-68
2021/03/31 05:08:53;;;;;;;31.43;23.40;;;6.70;80.30;;;;;;5091387;28;20044;-68
2021/03/31 05:11:19;;;;;;;36.40;25.03;;;6.70;80.40;;;;;;5091829;28;20474;-67
2021/03/31 05:13:45;;;;;;;33.77;24.47;;;6.70;80.30;;;;;;5090533;28;20077;-67
2021/03/31 05:16:11;;;;;;;35.77;24.90;;;6.70;80.40;;;;;;5091688;28;20377;-67
2021/03/31 05:18:36;;;;;;;30.67;24.83;;;6.70;80.50;;;;;;5090444;28;20059;-67
2021/03/31 05:21:02;;;;;;;33.27;25.80;;;6.70;80.40;;;;;;5091259;28;20050;-67
2021/03/31 05:23:28;;;;;;;30.93;24.57;;;6.70;80.30;;;;;;5091651;28;20055;-67
2021/03/31 05:25:54;;;;;;;34.20;24.90;;;6.70;80.40;;;;;;5090390;28;20806;-67
2021/03/31 05:28:20;;;;;;;37.03;24.73;;;6.70;80.40;;;;;;5091560;28;20063;-68
2021/03/31 05:30:46;;;;;;;31.03;23.57;;;6.70;80.60;;;;;;5090905;28;20920;-68
2021/03/31 05:33:12;;;;;;;34.87;25.33;;;6.70;80.80;;;;;;5090604;28;20044;-67
2021/03/31 05:35:37;;;;;;;31.90;25.20;;;6.70;80.80;;;;;;5091072;28;20350;-67
2021/03/31 05:38:03;;;;;;;33.03;25.23;;;6.70;80.90;;;;;;5090722;28;20052;-67
2021/03/31 05:40:32;;;;;;;35.20;25.20;;;6.70;80.60;;;;;;5090429;28;20064;-67
2021/03/31 05:42:59;;;;;;;37.10;26.03;;;6.70;80.60;;;;;;5090670;28;20044;-67
2021/03/31 05:45:27;;;;;;;33.23;23.33;;;6.70;80.80;;;;;;5094821;28;20298;-67
2021/03/31 05:47:53;;;;;;;30.67;24.33;;;6.70;80.60;;;;;;5094007;28;20309;-67
2021/03/31 05:50:19;;;;;;;30.60;24.80;;;6.70;80.80;;;;;;5095551;28;20741;-67
2021/03/31 05:52:46;;;;;;;28.73;24.07;;;6.70;80.60;;;;;;5095038;28;20298;-67
2021/03/31 05:55:14;;;;;;;36.90;23.80;;;6.70;80.30;;;;;;5094555;28;20123;-67
2021/03/31 05:57:41;;;;;;;35.17;25.43;;;6.80;80.40;;;;;;5094895;28;20400;-67
2021/03/31 06:00:13;;;;;;;31.23;24.73;;;6.80;80.30;;;;;;5095003;28;20361;-67
2021/03/31 06:02:40;;;;;;;33.50;24.80;;;6.90;80.10;;;;;;5094385;28;20305;-67
2021/03/31 06:05:08;;;;;;;30.77;23.47;;;6.90;80.80;;;;;;5095003;28;20294;-67
2021/03/31 06:07:34;;;;;;;30.37;23.67;;;7.00;80.00;;;;;;5094945;28;20383;-67
2021/03/31 06:10:07;;;;;;;31.57;22.83;;;7.00;79.80;;;;;;5094199;28;20348;-67
2021/03/31 06:12:34;;;;;;;28.83;21.77;;;7.10;79.50;;;;;;5094731;28;20048;-68
2021/03/31 06:15:10;;;;;;;31.00;23.50;;;7.20;79.10;;;;;;5093941;28;20298;-68
2021/03/31 06:17:51;;;;;;;30.57;22.87;;;7.30;79.00;;;;;;5094748;28;20338;-68
2021/03/31 06:20:39;;;;;;;33.63;23.27;;;7.30;78.60;;;;;;5095029;28;20298;-68
2021/03/31 06:23:35;;;;;;;28.50;22.23;;;7.50;78.60;;;;;;5060120;28;20298;-68
2021/03/31 06:26:03;;;;;;;27.43;21.70;;;7.60;78.60;;;;;;5093805;28;20312;-68
2021/03/31 06:28:35;;;;;;;29.33;20.97;;;7.80;78.00;;;;;;5095062;28;20298;-68
2021/03/31 06:31:12;;;;;;;29.63;21.48;;;7.90;77.30;;;;;;5093613;28;20295;-68
2021/03/31 06:33:39;;;;;;;25.23;20.00;;;8.00;77.30;;;;;;5094401;28;20484;-68
2021/03/31 06:36:07;;;;;;;25.00;20.07;;;8.20;77.60;;;;;;5093770;28;20321;-68
2021/03/31 06:38:35;;;;;;;25.37;21.17;;;8.50;77.00;;;;;;5094246;28;20313;-68
2021/03/31 06:41:32;;;;;;;27.10;21.40;;;8.80;75.90;;;;;;5094171;28;20302;-68
2021/03/31 06:44:15;;;;;;;25.43;20.87;;;9.00;75.20;;;;;;5073483;28;20301;-69
2021/03/31 06:49:13;;;;;;;25.10;20.50;;;9.00;75.00;;;;;;5094299;28;20351;-67
2021/03/31 06:51:39;;;;;;;28.07;22.07;;;8.90;75.00;;;;;;5093396;28;20304;-66
2021/03/31 06:54:49;;;;;;;25.17;21.37;;;8.90;75.00;;;;;;5093273;28;20297;-67
2021/03/31 06:57:23;;;;;;;24.87;19.87;;;9.00;74.90;;;;;;5082317;28;20048;-67
2021/03/31 07:00:04;;;;;;;25.17;20.17;;;9.00;74.60;;;;;;5093286;28;20786;-66
2021/03/31 07:02:31;;;;;;;23.73;19.55;;;9.10;74.40;;;;;;5094234;28;20294;-66
2021/03/31 07:04:58;;;;;;;29.40;21.13;;;9.10;74.40;;;;;;5092831;28;20075;-68
2021/03/31 07:07:34;;;;;;;24.97;20.43;;;9.20;74.20;;;;;;5094262;28;20321;-68
2021/03/31 07:10:11;;;;;;;23.77;19.87;;;9.40;73.90;;;;;;5093848;28;20405;-68
2021/03/31 07:12:53;;;;;;;27.73;20.80;;;9.60;73.70;;;;;;5093121;28;20298;-68
2021/03/31 07:15:21;;;;;;;24.35;19.92;;;9.80;73.80;;;;;;5093915;28;20716;-68
2021/03/31 07:17:55;;;;;;;30.53;19.87;;;10.10;73.90;;;;;;5093176;28;20048;-68
2021/03/31 07:20:22;;;;;;;24.90;19.60;;;10.50;72.50;;;;;;5075065;28;20384;-67
2021/03/31 07:22:48;;;;;;;24.60;20.03;;;10.70;72.00;;;;;;5093050;28;20412;-67
2021/03/31 07:25:17;;;;;;;26.07;19.90;;;10.90;71.50;;;;;;5092856;28;20632;-67
2021/03/31 07:27:44;;;;;;;28.43;21.90;;;11.00;71.40;;;;;;5093256;28;20048;-67
2021/03/31 07:30:13;;;;;;;26.57;20.13;;;11.00;71.10;;;;;;5093457;28;20301;-68
2021/03/31 07:33:01;;;;;;;25.67;21.93;;;11.10;70.80;;;;;;5092685;28;20302;-68
2021/03/31 07:35:35;;;;;;;28.23;21.67;;;11.20;70.00;;;;;;5093786;28;20300;-67
2021/03/31 07:38:04;;;;;;;27.37;21.90;;;11.40;70.00;;;;;;5093192;28;20048;-67
2021/03/31 07:40:35;;;;;;;29.37;22.77;;;11.40;69.80;;;;;;5092636;28;20067;-68
2021/03/31 07:43:22;;;;;;;25.17;21.13;;;11.50;69.60;;;;;;5093208;28;20381;-67
2021/03/31 07:46:10;;;;;;;24.27;19.70;;;11.60;68.90;;;;;;5092556;28;20080;-67
2021/03/31 07:48:37;;;;;;;24.10;20.23;;;11.80;69.00;;;;;;5091596;28;20091;-67
2021/03/31 07:51:20;;;;;;;27.33;21.80;;;12.00;68.20;;;;;;5093132;28;20052;-68
2021/03/31 07:53:48;;;;;;;23.53;20.63;;;12.20;67.60;;;;;;5091430;28;20074;-67
2021/03/31 07:56:18;;;;;;;27.27;22.97;;;12.40;67.80;;;;;;5093128;28;20060;-67
2021/03/31 07:59:10;;;;;;;28.97;22.53;;;12.70;67.70;;;;;;5092692;28;20048;-68
2021/03/31 08:01:49;;;;;;;26.13;21.75;;;13.00;66.80;;;;;;5092231;28;20124;-67
2021/03/31 08:04:16;;;;;;;27.00;22.83;;;13.10;66.90;;;;;;5092847;28;20051;-67
2021/03/31 08:06:44;;;;;;;24.33;21.77;;;13.20;66.60;;;;;;5091517;28;20048;-68
2021/03/31 08:09:21;;;;;;;29.90;22.37;;;13.40;66.30;;;;;;5091761;28;20113;-68
2021/03/31 08:11:59;;;;;;;27.83;23.00;;;13.80;66.00;;;;;;5092079;28;20044;-68
2021/03/31 08:14:29;;;;;;;25.67;22.40;;;14.10;66.20;;;;;;5092088;28;20051;-68
2021/03/31 08:16:57;;;;;;;25.73;22.63;;;14.60;65.50;;;;;;5092123;28;20052;-68
2021/03/31 08:19:31;;;;;;;27.53;22.60;;;15.20;65.00;;;;;;5092792;28;20044;-67
2021/03/31 08:22:16;;;;;;;25.37;20.70;;;15.70;63.20;;;;;;5091480;28;20134;-68
2021/03/31 08:24:46;;;;;;;28.07;21.80;;;16.40;62.70;;;;;;5092447;28;20048;-68
2021/03/31 08:27:13;;;;;;;25.73;22.30;;;17.00;61.20;;;;;;5092777;28;20115;-69
2021/03/31 08:29:42;;;;;;;28.13;22.60;;;17.30;59.30;;;;;;5091602;28;20054;-68
2021/03/31 08:32:10;;;;;;;32.23;22.67;;;17.60;57.30;;;;;;5092178;28;20063;-69
2021/03/31 08:34:37;;;;;;;26.63;21.43;;;17.90;55.10;;;;;;5092007;28;20078;-69
2021/03/31 08:37:05;;;;;;;27.13;21.03;;;18.00;54.10;;;;;;5091502;28;20087;-69
2021/03/31 08:39:31;;;;;;;23.60;20.13;;;18.10;53.00;;;;;;5092461;28;20040;-68
2021/03/31 08:41:58;;;;;;;27.17;21.30;;;18.30;52.10;;;;;;5092123;28;20048;-69
2021/03/31 08:44:27;;;;;;;27.70;22.30;;;18.70;50.80;;;;;;5091550;28;20445;-68
2021/03/31 08:46:54;;;;;;;24.87;21.20;;;19.00;49.30;;;;;;5091331;28;20083;-69
2021/03/31 08:49:28;;;;;;;26.97;21.33;;;19.30;48.90;;;;;;5092033;28;20056;-68
2021/03/31 08:51:56;;;;;;;26.70;22.23;;;19.60;47.60;;;;;;5091193;28;20055;-69
2021/03/31 08:54:35;;;;;;;28.50;22.70;;;19.90;47.40;;;;;;5092172;28;20130;-68
2021/03/31 08:57:09;;;;;;;30.20;22.80;;;20.00;46.20;;;;;;5090870;28;20476;-69
2021/03/31 08:59:37;;;;;;;29.27;22.47;;;19.80;45.90;;;;;;5091649;28;20544;-69
2021/03/31 09:02:04;;;;;;;26.37;21.60;;;19.70;46.70;;;;;;5091552;28;20489;-69
2021/03/31 09:04:31;;;;;;;27.57;21.63;;;19.80;46.70;;;;;;5091297;28;20382;-69
2021/03/31 09:06:58;;;;;;;26.67;21.63;;;19.80;46.40;;;;;;5091634;28;20055;-69
2021/03/31 09:09:24;;;;;;;28.83;24.13;;;20.00;45.40;;;;;;5091980;28;20124;-69
2021/03/31 09:12:06;;;;;;;29.30;21.03;;;20.10;45.10;;;;;;5090646;28;20094;-69
2021/03/31 09:14:33;;;;;;;29.10;22.60;;;20.00;43.70;;;;;;5091745;28;20047;-70
2021/03/31 09:17:02;;;;;;;29.83;21.80;;;19.80;44.70;;;;;;5096312;28;20547;-69
2021/03/31 09:19:30;;;;;;;33.23;23.63;;;19.60;45.20;;;;;;5092893;28;20432;-69
2021/03/31 09:21:56;;;;;;;28.33;23.03;;;19.60;44.00;;;;;;5091057;28;20135;-70
2021/03/31 09:24:26;;;;;;;26.57;21.27;;;19.70;44.00;;;;;;5091632;28;20055;-68
2021/03/31 09:26:55;;;;;;;30.90;21.90;;;19.80;43.10;;;;;;5090289;28;20413;-68
2021/03/31 09:29:21;;;;;;;28.83;22.83;;;19.70;42.80;;;;;;5091520;28;20549;-68
2021/03/31 09:31:48;;;;;;;30.27;22.87;;;19.60;43.10;;;;;;5090271;28;20048;-68
2021/03/31 09:34:14;;;;;;;30.90;23.63;;;19.60;42.80;;;;;;5091683;28;20044;-67
2021/03/31 09:36:40;;;;;;;29.97;23.57;;;19.50;42.50;;;;;;5091014;28;20052;-68
2021/03/31 09:39:08;;;;;;;30.53;24.63;;;19.40;42.60;;;;;;5090185;28;20106;-67
2021/03/31 09:41:35;;;;;;;29.33;23.13;;;19.50;42.80;;;;;;5096292;28;20491;-68
2021/03/31 09:44:01;;;;;;;27.37;22.43;;;19.50;43.30;;;;;;5096639;28;20043;-70
2021/03/31 09:46:28;;;;;;;28.77;22.87;;;19.50;42.60;;;;;;5100857;28;20051;-67
2021/03/31 09:48:55;;;;;;;34.17;24.87;;;19.50;42.30;;;;;;5093342;28;20059;-68
2021/03/31 09:51:21;;;;;;;30.33;24.27;;;19.40;42.30;;;;;;5096232;28;20067;-68
2021/03/31 09:53:48;;;;;;;29.27;23.23;;;19.40;42.00;;;;;;5109941;28;20400;-68
2021/03/31 09:56:14;;;;;;;31.33;22.77;;;19.30;42.40;;;;;;5111621;28;20047;-68
2021/03/31 09:58:41;;;;;;;28.87;23.37;;;19.40;42.00;;;;;;5110908;28;20480;-68
2021/03/31 10:01:11;;;;;;;30.70;23.67;;;19.50;42.50;;;;;;5110645;28;20087;-68
2021/03/31 10:03:38;;;;;;;29.27;21.93;;;19.60;41.80;;;;;;5111124;28;20040;-68
2021/03/31 10:06:18;;;;;;;29.03;22.57;;;19.70;41.10;;;;;;5111237;28;20067;-68
2021/03/31 10:08:44;;;;;;;36.97;23.57;;;19.70;39.90;;;;;;5110291;28;20396;-68
2021/03/31 10:11:31;;;;;;;30.60;23.70;;;19.70;40.80;;;;;;5111458;28;20050;-68
2021/03/31 10:14:00;;;;;;;28.60;22.10;;;19.70;39.90;;;;;;5110176;28;20047;-69
2021/03/31 10:16:39;;;;;;;36.10;24.20;;;19.80;40.50;;;;;;5111337;28;20104;-68
2021/03/31 10:19:07;;;;;;;32.20;25.33;;;19.90;40.60;;;;;;5111374;28;20052;-68
2021/03/31 10:21:35;;;;;;;32.60;26.73;;;19.80;41.30;;;;;;5110266;28;20442;-68
2021/03/31 10:24:02;;;;;;;36.30;25.60;;;20.00;42.90;;;;;;5111167;28;20127;-69
2021/03/31 10:26:34;;;;;;;30.90;24.90;;;20.10;43.00;;;;;;5111131;28;20488;-69
2021/03/31 10:29:03;;;;;;;32.60;25.93;;;20.20;42.40;;;;;;5110487;28;20096;-69
2021/03/31 10:31:34;;;;;;;36.57;25.50;;;20.30;42.30;;;;;;5114824;28;20052;-69
2021/03/31 10:34:01;;;;;;;32.53;26.15;;;20.30;41.70;;;;;;5114993;28;20483;-69
2021/03/31 10:48:08;;;;;;;30.95;26.00;;;20.60;43.40;;;;;;5113899;28;20438;-69
2021/03/31 10:50:48;;;;;;;31.63;24.97;;;20.70;43.30;;;;;;5114028;28;20047;-69
2021/03/31 10:53:14;;;;;;;31.27;25.77;;;20.80;43.20;;;;;;5114773;28;20043;-69
2021/03/31 10:55:42;;;;;;;33.07;25.77;;;20.90;43.00;;;;;;5114276;28;20047;-69
2021/03/31 10:58:09;;;;;;;39.30;26.77;;;21.00;41.10;;;;;;5113415;28;20130;-69
2021/03/31 11:00:35;;;;;;;33.87;26.83;;;21.00;41.20;;;;;;5114088;28;20050;-69
2021/03/31 11:03:01;;;;;;;33.73;27.03;;;21.10;41.00;;;;;;5114072;28;20138;-69
2021/03/31 11:05:27;;;;;;;34.07;27.80;;;21.20;39.20;;;;;;5113757;28;20043;-69
2021/03/31 11:07:53;;;;;;;34.83;27.60;;;21.30;39.30;;;;;;5113662;28;20493;-69
2021/03/31 11:10:19;;;;;;;33.13;26.50;;;21.40;39.70;;;;;;5113582;28;20052;-69
2021/03/31 11:12:44;;;;;;;35.43;26.37;;;21.40;40.20;;;;;;5113626;28;20055;-68
2021/03/31 11:15:14;;;;;;;33.50;27.80;;;21.40;40.20;;;;;;5114030;28;20487;-69
2021/03/31 11:17:53;;;;;;;35.57;27.60;;;21.40;39.50;;;;;;5113062;28;20083;-69
2021/03/31 11:26:08;;;;;;;33.03;26.53;;;21.70;38.10;;;;;;5112879;28;20527;-69
2021/03/31 11:28:36;;;;;;;38.30;28.67;;;21.80;38.50;;;;;;5113800;28;20048;-69
2021/03/31 11:31:03;;;;;;;38.33;28.90;;;21.90;38.20;;;;;;5113495;28;20134;-69
2021/03/31 11:33:28;;;;;;;41.93;29.17;;;22.00;38.60;;;;;;5112912;28;20069;-68
2021/03/31 11:35:54;;;;;;;37.57;28.03;;;22.20;37.90;;;;;;5113182;28;20460;-68
2021/03/31 11:38:20;;;;;;;35.73;28.40;;;22.30;37.10;;;;;;5113108;28;20404;-70
2021/03/31 11:41:07;;;;;;;38.40;28.87;;;22.20;37.00;;;;;;5098253;28;20138;-69
2021/03/31 11:43:53;;;;;;;36.70;28.90;;;22.40;36.80;;;;;;5098024;28;20091;-69
2021/03/31 11:46:39;;;;;;;38.30;29.33;;;22.50;36.60;;;;;;5097071;28;20497;-69
2021/03/31 11:49:05;;;;;;;36.77;29.50;;;22.60;36.80;;;;;;5112540;28;20081;-69
2021/03/31 11:51:31;;;;;;;40.00;29.57;;;22.70;36.00;;;;;;5113229;28;20059;-69
2021/03/31 11:53:56;;;;;;;39.77;29.00;;;22.60;36.00;;;;;;5112457;28;20050;-69
2021/03/31 11:56:42;;;;;;;37.57;30.03;;;22.70;36.10;;;;;;5097846;28;20047;-69
2021/03/31 11:59:07;;;;;;;42.50;31.10;;;22.70;35.90;;;;;;5112753;28;20108;-69
2021/03/31 12:01:37;;;;;;;38.77;29.13;;;22.70;35.90;;;;;;5112438;28;20043;-70
2021/03/31 12:04:02;;;;;;;37.43;29.63;;;22.80;35.40;;;;;;5112812;28;20502;-69
2021/03/31 12:06:28;;;;;;;35.60;28.50;;;22.80;35.70;;;;;;5112365;28;20047;-69
2021/03/31 12:09:14;;;;;;;39.23;30.27;;;22.80;35.30;;;;;;5097709;28;20496;-69
2021/03/31 12:11:39;;;;;;;37.40;28.63;;;22.80;35.00;;;;;;5112935;28;20058;-69
2021/03/31 12:14:05;;;;;;;38.30;30.83;;;22.80;35.40;;;;;;5112141;28;20492;-70
2021/03/31 12:16:51;;;;;;;38.13;29.97;;;22.90;36.00;;;;;;5097252;28;20047;-70
2021/03/31 12:19:16;;;;;;;38.30;30.27;;;22.90;34.70;;;;;;5112878;28;20052;-69
2021/03/31 12:22:03;;;;;;;40.33;31.43;;;22.90;34.40;;;;;;5096747;28;20132;-69
2021/03/31 12:24:49;;;;;;;39.43;29.87;;;22.90;34.50;;;;;;5096883;28;20459;-70
2021/03/31 12:27:18;;;;;;;37.10;30.03;;;23.00;34.40;;;;;;5112943;28;20048;-69
2021/03/31 12:29:44;;;;;;;40.47;29.10;;;22.90;33.60;;;;;;5111805;28;20054;-70
2021/03/31 12:32:12;;;;;;;40.27;30.90;;;23.00;34.50;;;;;;5112434;28;20043;-69
2021/03/31 12:34:58;;;;;;;41.47;30.97;;;23.10;34.20;;;;;;5096528;28;20051;-70
2021/03/31 12:37:24;;;;;;;39.37;30.17;;;23.20;33.90;;;;;;5112212;28;20048;-69
2021/03/31 12:40:11;;;;;;;41.20;31.13;;;23.20;33.50;;;;;;5097394;28;20487;-69
2021/03/31 12:42:57;;;;;;;39.50;29.57;;;23.20;33.20;;;;;;5096378;28;20047;-70
2021/03/31 12:45:42;;;;;;;39.80;31.00;;;23.30;33.00;;;;;;5090753;28;20071;-69
2021/03/31 12:48:08;;;;;;;28.47;20.33;;;23.30;33.00;;;;;;5091688;28;20480;-70
2021/03/31 12:51:01;;;;;;;20.87;16.77;;;23.30;31.90;;;;;;5089638;28;20044;-69
2021/03/31 12:53:37;;;;;;;23.40;16.90;;;23.50;31.20;;;;;;5091579;28;20056;-70
2021/03/31 12:56:25;;;;;;;27.83;19.13;;;23.60;29.80;;;;;;5090308;28;20481;-70
2021/03/31 12:58:51;;;;;;;26.10;19.00;;;23.70;29.10;;;;;;5091280;28;20051;-69
2021/03/31 13:01:23;;;;;;;20.73;16.60;;;23.70;29.20;;;;;;5091800;28;20052;-69
2021/03/31 13:03:49;;;;;;;19.73;17.20;;;23.80;29.20;;;;;;5090040;28;20051;-70
2021/03/31 13:06:14;;;;;;;24.23;18.07;;;23.90;28.70;;;;;;5091757;28;20052;-69
2021/03/31 13:09:00;;;;;;;31.00;20.43;;;23.80;28.50;;;;;;5090395;28;20493;-70